Time;durP1;ratioP1;P1;durP2;ratioP2;P2;SDS_P1;SDS_P2;PMS_P1;PMS_P2;Temp;Humidity;BMP_temperature;BMP_pressure;BME280_temperature;BME280_humidity;BME280_pressure;Samples;Min_cycle;Max_cycle;Signal;HPM_P1;HPM_P2
2023/06/14 00:09:43;;;;;;;11.7;6.1;;;;;;;;;;;;;
2023/06/14 00:19:43;;;;;;;10.1;6.3;;;;;;;;;;;;;
2023/06/14 00:30:46;;;;;;;10.1;6.3;;;;;;;;;;;;;
2023/06/14 00:41:43;;;;;;;10.1;6.3;;;;;;;;;;;;;
2023/06/14 00:51:43;;;;;;;12.2;7.6;;;;;;;;;;;;;
2023/06/14 01:02:43;;;;;;;12.2;7.6;;;;;;;;;;;;;
2023/06/14 01:12:43;;;;;;;12.2;7.6;;;;;;;;;;;;;
2023/06/14 01:23:43;;;;;;;11.3;6.8;;;;;;;;;;;;;
2023/06/14 01:33:43;;;;;;;11.3;6.8;;;;;;;;;;;;;
2023/06/14 01:43:43;;;;;;;11.3;6.8;;;;;;;;;;;;;
2023/06/14 01:53:43;;;;;;;11;6;;;;;;;;;;;;;
2023/06/14 02:03:44;;;;;;;11;6;;;;;;;;;;;;;
2023/06/14 02:13:43;;;;;;;11;6;;;;;;;;;;;;;
2023/06/14 02:24:43;;;;;;;10.3;6.2;;;;;;;;;;;;;
2023/06/14 02:34:43;;;;;;;10.3;6.2;;;;;;;;;;;;;
2023/06/14 02:44:45;;;;;;;10.3;6.2;;;;;;;;;;;;;
2023/06/14 02:54:43;;;;;;;19;9.6;;;;;;;;;;;;;
2023/06/14 03:05:45;;;;;;;19;9.6;;;;;;;;;;;;;
2023/06/14 03:15:44;;;;;;;19;9.6;;;;;;;;;;;;;
2023/06/14 03:26:43;;;;;;;18.4;10.7;;;;;;;;;;;;;
2023/06/14 03:36:43;;;;;;;18.4;10.7;;;;;;;;;;;;;
2023/06/14 03:47:43;;;;;;;17.5;11.5;;;;;;;;;;;;;
2023/06/14 03:58:43;;;;;;;17.5;11.5;;;;;;;;;;;;;
2023/06/14 04:08:45;;;;;;;17.5;11.5;;;;;;;;;;;;;
2023/06/14 04:19:43;;;;;;;22.6;13.4;;;;;;;;;;;;;
2023/06/14 04:30:44;;;;;;;22.6;13.4;;;;;;;;;;;;;
2023/06/14 04:40:44;;;;;;;22.6;13.4;;;;;;;;;;;;;
2023/06/14 04:50:43;;;;;;;27.5;15;;;;;;;;;;;;;
2023/06/14 05:01:47;;;;;;;27.5;15;;;;;;;;;;;;;
2023/06/14 05:11:43;;;;;;;27.5;15;;;;;;;;;;;;;
2023/06/14 05:22:43;;;;;;;23.4;14.7;;;;;;;;;;;;;
2023/06/14 05:33:43;;;;;;;23.4;14.7;;;;;;;;;;;;;
2023/06/14 05:43:43;;;;;;;23.4;14.7;;;;;;;;;;;;;
2023/06/14 05:53:43;;;;;;;26.4;15;;;;;;;;;;;;;
2023/06/14 06:03:45;;;;;;;26.4;15;;;;;;;;;;;;;
2023/06/14 06:14:43;;;;;;;26.4;15;;;;;;;;;;;;;
2023/06/14 06:24:43;;;;;;;29.6;21.3;;;;;;;;;;;;;
2023/06/14 06:34:43;;;;;;;29.6;21.3;;;;;;;;;;;;;
2023/06/14 06:44:43;;;;;;;29.6;21.3;;;;;;;;;;;;;
2023/06/14 06:54:43;;;;;;;28.1;20.3;;;;;;;;;;;;;
2023/06/14 07:04:43;;;;;;;28.1;20.3;;;;;;;;;;;;;
2023/06/14 07:15:43;;;;;;;28.1;20.3;;;;;;;;;;;;;
2023/06/14 07:25:43;;;;;;;24.1;17;;;;;;;;;;;;;
2023/06/14 07:36:44;;;;;;;24.1;17;;;;;;;;;;;;;
2023/06/14 07:47:44;;;;;;;23.8;17.7;;;;;;;;;;;;;
2023/06/14 07:57:44;;;;;;;23.8;17.7;;;;;;;;;;;;;
2023/06/14 08:08:43;;;;;;;23.8;17.7;;;;;;;;;;;;;
2023/06/14 08:18:43;;;;;;;19.1;13.8;;;;;;;;;;;;;
2023/06/14 08:28:43;;;;;;;19.1;13.8;;;;;;;;;;;;;
2023/06/14 08:38:43;;;;;;;19.1;13.8;;;;;;;;;;;;;
2023/06/14 08:49:44;;;;;;;16.4;12;;;;;;;;;;;;;
2023/06/14 08:59:43;;;;;;;16.4;12;;;;;;;;;;;;;
2023/06/14 09:10:44;;;;;;;16.4;12;;;;;;;;;;;;;
2023/06/14 09:20:43;;;;;;;15.6;11.3;;;;;;;;;;;;;
2023/06/14 09:30:43;;;;;;;15.6;11.3;;;;;;;;;;;;;
2023/06/14 09:40:43;;;;;;;15.6;11.3;;;;;;;;;;;;;
2023/06/14 09:51:43;;;;;;;8.6;6.5;;;;;;;;;;;;;
2023/06/14 10:01:43;;;;;;;8.6;6.5;;;;;;;;;;;;;
2023/06/14 10:12:43;;;;;;;8.6;6.5;;;;;;;;;;;;;
2023/06/14 10:23:43;;;;;;;7.1;4.3;;;;;;;;;;;;;
2023/06/14 10:34:43;;;;;;;7.1;4.3;;;;;;;;;;;;;
2023/06/14 10:45:43;;;;;;;7.1;4.3;;;;;;;;;;;;;
2023/06/14 10:55:43;;;;;;;7.9;5.2;;;;;;;;;;;;;
2023/06/14 11:05:43;;;;;;;7.9;5.2;;;;;;;;;;;;;
2023/06/14 11:16:43;;;;;;;8.4;5.4;;;;;;;;;;;;;
2023/06/14 11:27:43;;;;;;;8.4;5.4;;;;;;;;;;;;;
2023/06/14 11:38:43;;;;;;;8.4;5.4;;;;;;;;;;;;;
2023/06/14 11:48:43;;;;;;;7.6;5;;;;;;;;;;;;;
2023/06/14 11:59:44;;;;;;;7.6;5;;;;;;;;;;;;;
2023/06/14 12:09:44;;;;;;;7.6;5;;;;;;;;;;;;;
2023/06/14 12:19:44;;;;;;;7.2;4.7;;;;;;;;;;;;;
2023/06/14 12:29:43;;;;;;;7.2;4.7;;;;;;;;;;;;;
2023/06/14 12:39:43;;;;;;;7.2;4.7;;;;;;;;;;;;;
2023/06/14 12:50:43;;;;;;;7.2;5.2;;;;;;;;;;;;;
2023/06/14 13:00:43;;;;;;;7.2;5.2;;;;;;;;;;;;;
2023/06/14 13:11:45;;;;;;;7.2;5.2;;;;;;;;;;;;;
2023/06/14 13:21:43;;;;;;;9.6;4.9;;;;;;;;;;;;;
2023/06/14 13:32:44;;;;;;;9.6;4.9;;;;;;;;;;;;;
2023/06/14 13:43:43;;;;;;;9.6;4.9;;;;;;;;;;;;;
2023/06/14 13:53:43;;;;;;;5.9;3.9;;;;;;;;;;;;;
2023/06/14 14:04:43;;;;;;;5.9;3.9;;;;;;;;;;;;;
2023/06/14 14:15:44;;;;;;;5.9;3.9;;;;;;;;;;;;;
2023/06/14 14:26:43;;;;;;;7.8;3.7;;;;;;;;;;;;;
2023/06/14 14:37:43;;;;;;;7.8;3.7;;;;;;;;;;;;;
2023/06/14 14:47:43;;;;;;;5.9;3.2;;;;;;;;;;;;;
2023/06/14 14:57:43;;;;;;;5.9;3.2;;;;;;;;;;;;;
2023/06/14 15:08:43;;;;;;;5.9;3.2;;;;;;;;;;;;;
2023/06/14 15:18:43;;;;;;;20.8;14.2;;;;;;;;;;;;;
2023/06/14 15:28:43;;;;;;;20.8;14.2;;;;;;;;;;;;;
2023/06/14 15:38:43;;;;;;;20.8;14.2;;;;;;;;;;;;;
2023/06/14 15:49:43;;;;;;;16.2;12.3;;;;;;;;;;;;;
2023/06/14 15:59:43;;;;;;;16.2;12.3;;;;;;;;;;;;;
2023/06/14 16:10:43;;;;;;;16.2;12.3;;;;;;;;;;;;;
2023/06/14 16:21:43;;;;;;;11.1;7.3;;;;;;;;;;;;;
2023/06/14 16:31:43;;;;;;;11.1;7.3;;;;;;;;;;;;;
2023/06/14 16:41:43;;;;;;;11.1;7.3;;;;;;;;;;;;;
2023/06/14 16:52:43;;;;;;;9.7;6.6;;;;;;;;;;;;;
2023/06/14 17:03:43;;;;;;;9.7;6.6;;;;;;;;;;;;;
2023/06/14 17:13:43;;;;;;;9.7;6.6;;;;;;;;;;;;;
2023/06/14 17:24:43;;;;;;;4.8;3;;;;;;;;;;;;;
2023/06/14 17:35:43;;;;;;;4.8;3;;;;;;;;;;;;;
2023/06/14 17:46:44;;;;;;;7.3;3.4;;;;;;;;;;;;;
2023/06/14 17:56:43;;;;;;;7.3;3.4;;;;;;;;;;;;;
2023/06/14 18:07:43;;;;;;;7.3;3.4;;;;;;;;;;;;;
2023/06/14 18:17:43;;;;;;;5;2.7;;;;;;;;;;;;;
2023/06/14 18:28:43;;;;;;;5;2.7;;;;;;;;;;;;;
2023/06/14 18:39:43;;;;;;;5;2.7;;;;;;;;;;;;;
2023/06/14 18:49:43;;;;;;;7.7;4.8;;;;;;;;;;;;;
2023/06/14 19:00:43;;;;;;;7.7;4.8;;;;;;;;;;;;;
2023/06/14 19:11:44;;;;;;;7.7;4.8;;;;;;;;;;;;;
2023/06/14 19:21:43;;;;;;;7.1;4.9;;;;;;;;;;;;;
2023/06/14 19:31:44;;;;;;;7.1;4.9;;;;;;;;;;;;;
2023/06/14 19:41:43;;;;;;;7.1;4.9;;;;;;;;;;;;;
2023/06/14 19:51:43;;;;;;;7.3;4.9;;;;;;;;;;;;;
2023/06/14 20:01:43;;;;;;;7.3;4.9;;;;;;;;;;;;;
2023/06/14 20:12:44;;;;;;;7.3;4.9;;;;;;;;;;;;;
2023/06/14 20:22:43;;;;;;;63.4;48;;;;;;;;;;;;;
2023/06/14 20:32:44;;;;;;;63.4;48;;;;;;;;;;;;;
2023/06/14 20:42:44;;;;;;;63.4;48;;;;;;;;;;;;;
2023/06/14 20:52:44;;;;;;;15.8;8.9;;;;;;;;;;;;;
2023/06/14 21:02:43;;;;;;;15.8;8.9;;;;;;;;;;;;;
2023/06/14 21:13:44;;;;;;;15.8;8.9;;;;;;;;;;;;;
2023/06/14 21:24:44;;;;;;;10.1;5.6;;;;;;;;;;;;;
2023/06/14 21:34:44;;;;;;;10.1;5.6;;;;;;;;;;;;;
2023/06/14 21:44:44;;;;;;;10.1;5.6;;;;;;;;;;;;;
2023/06/14 21:54:44;;;;;;;9.9;5;;;;;;;;;;;;;
2023/06/14 22:05:44;;;;;;;9.9;5;;;;;;;;;;;;;
2023/06/14 22:15:45;;;;;;;9.9;5;;;;;;;;;;;;;
2023/06/14 22:26:47;;;;;;;7.2;4;;;;;;;;;;;;;
2023/06/14 22:36:47;;;;;;;7.2;4;;;;;;;;;;;;;
2023/06/14 22:47:44;;;;;;;9;4.6;;;;;;;;;;;;;
2023/06/14 22:57:45;;;;;;;9;4.6;;;;;;;;;;;;;
2023/06/14 23:07:44;;;;;;;9;4.6;;;;;;;;;;;;;
2023/06/14 23:18:44;;;;;;;8.4;4.5;;;;;;;;;;;;;
2023/06/14 23:29:45;;;;;;;8.4;4.5;;;;;;;;;;;;;
2023/06/14 23:39:48;;;;;;;8.4;4.5;;;;;;;;;;;;;
2023/06/14 23:49:44;;;;;;;9.8;4.9;;;;;;;;;;;;;
2023/06/14 23:59:44;;;;;;;9.8;4.9;;;;;;;;;;;;;
